Time;durP1;ratioP1;P1;durP2;ratioP2;P2;SDS_P1;SDS_P2;PMS_P1;PMS_P2;Temp;Humidity;BMP_temperature;BMP_pressure;BME280_temperature;BME280_humidity;BME280_pressure;Samples;Min_cycle;Max_cycle;Signal;HPM_P1;HPM_P2
2022/07/01 00:00:09;;;;;;;0.20;0.10;;;;;;;7.90;100.00;100733.84;5119122;27;20035;-51
2022/07/01 00:02:34;;;;;;;0.63;0.00;;;;;;;7.85;100.00;100736.97;5131465;27;20110;-54
2022/07/01 00:05:00;;;;;;;1.10;0.20;;;;;;;7.78;100.00;100729.91;5127082;27;20115;-52
2022/07/01 00:07:25;;;;;;;0.00;0.00;;;;;;;7.75;100.00;100728.41;5121886;27;20051;-53
2022/07/01 00:09:51;;;;;;;4.88;0.20;;;;;;;7.74;100.00;100728.56;5124299;27;20097;-52
2022/07/01 00:12:16;;;;;;;0.35;0.00;;;;;;;7.70;100.00;100727.25;5128119;27;20038;-54
2022/07/01 00:14:42;;;;;;;2.60;0.00;;;;;;;7.67;100.00;100727.56;5126661;27;20045;-52
2022/07/01 00:17:08;;;;;;;0.40;0.00;;;;;;;7.64;100.00;100734.00;5123005;27;20118;-52
2022/07/01 00:19:33;;;;;;;0.40;0.10;;;;;;;7.69;100.00;100729.06;5125998;27;20023;-52
2022/07/01 00:21:58;;;;;;;0.38;0.00;;;;;;;7.75;100.00;100732.88;5130271;27;20111;-49
2022/07/01 00:24:24;;;;;;;0.30;0.10;;;;;;;7.85;100.00;100730.88;5128060;27;20042;-53
2022/07/01 00:26:49;;;;;;;1.08;0.55;;;;;;;7.93;100.00;100733.50;5130294;27;20051;-54
2022/07/01 00:29:15;;;;;;;0.95;0.75;;;;;;;8.00;100.00;100731.84;5123539;27;20036;-54
2022/07/01 00:31:40;;;;;;;0.60;0.10;;;;;;;8.02;100.00;100743.03;5123100;27;20436;-53
2022/07/01 00:34:06;;;;;;;0.17;0.17;;;;;;;8.07;100.00;100739.91;5128198;27;20399;-54
2022/07/01 00:36:31;;;;;;;0.65;0.00;;;;;;;8.09;100.00;100744.03;5127468;27;20069;-53
2022/07/01 00:38:58;;;;;;;2.58;0.13;;;;;;;8.10;100.00;100739.56;5115190;27;20020;-54
2022/07/01 00:41:23;;;;;;;2.15;0.10;;;;;;;8.07;100.00;100746.00;5126914;27;20127;-52
2022/07/01 00:43:49;;;;;;;1.10;0.10;;;;;;;8.04;100.00;100749.00;5131088;27;20034;-53
2022/07/01 00:46:14;;;;;;;0.82;0.17;;;;;;;8.07;100.00;100748.66;5121994;27;20471;-54
2022/07/01 00:48:40;;;;;;;1.00;0.10;;;;;;;8.15;100.00;100745.16;5127918;27;20031;-50
2022/07/01 00:51:06;;;;;;;0.73;0.10;;;;;;;8.16;100.00;100748.63;5115357;27;20119;-51
2022/07/01 00:53:32;;;;;;;0.30;0.10;;;;;;;8.15;100.00;100744.34;5131129;27;20609;-50
2022/07/01 00:55:57;;;;;;;1.85;0.10;;;;;;;8.15;100.00;100741.72;5130585;27;20035;-51
2022/07/01 00:58:26;;;;;;;0.32;0.00;;;;;;;8.17;100.00;100740.56;5128298;27;20053;-56
2022/07/01 01:00:51;;;;;;;0.65;0.10;;;;;;;8.23;100.00;100739.03;5140152;27;20083;-50
2022/07/01 01:03:17;;;;;;;0.10;0.00;;;;;;;8.30;100.00;100735.56;5131329;27;20027;-56
2022/07/01 01:05:42;;;;;;;0.40;0.38;;;;;;;8.32;100.00;100738.03;5120111;27;20392;-52
2022/07/01 01:08:10;;;;;;;9.52;0.50;;;;;;;8.34;100.00;100738.69;5126827;27;20572;-55
2022/07/01 01:10:37;;;;;;;0.63;0.10;;;;;;;8.37;100.00;100735.72;5129909;27;20034;-49
2022/07/01 01:13:03;;;;;;;0.55;0.05;;;;;;;8.41;100.00;100739.69;5131175;27;20425;-52
2022/07/01 01:15:32;;;;;;;0.60;0.10;;;;;;;8.46;100.00;100733.88;5129474;27;20019;-49
2022/07/01 01:17:57;;;;;;;0.75;0.30;;;;;;;8.48;100.00;100730.06;5130176;27;20127;-51
2022/07/01 01:20:23;;;;;;;0.25;0.10;;;;;;;8.50;100.00;100727.28;5123274;27;20047;-51
2022/07/01 01:22:48;;;;;;;0.10;0.10;;;;;;;8.50;100.00;100727.28;5127103;27;20068;-52
2022/07/01 01:25:17;;;;;;;0.43;0.20;;;;;;;8.47;100.00;100730.25;5127220;27;20031;-53
2022/07/01 01:27:43;;;;;;;0.77;0.32;;;;;;;8.47;100.00;100731.09;5125168;27;20046;-52
2022/07/01 01:30:11;;;;;;;0.10;0.00;;;;;;;8.51;100.00;100736.84;5128148;27;20027;-52
2022/07/01 01:32:38;;;;;;;1.95;0.22;;;;;;;8.52;100.00;100733.22;5126928;27;20133;-51
2022/07/01 01:35:04;;;;;;;2.08;0.25;;;;;;;8.52;100.00;100733.22;5123151;27;20034;-52
2022/07/01 01:37:29;;;;;;;0.10;0.00;;;;;;;8.54;100.00;100727.75;5119191;27;20027;-53
2022/07/01 01:39:55;;;;;;;1.05;0.10;;;;;;;8.57;100.00;100735.31;5118381;27;20031;-53
2022/07/01 01:42:21;;;;;;;0.98;0.20;;;;;;;8.61;100.00;100736.66;5127858;27;20033;-52
2022/07/01 01:44:47;;;;;;;0.68;0.38;;;;;;;8.65;100.00;100733.50;5123791;27;20042;-50
2022/07/01 01:47:13;;;;;;;0.40;0.10;;;;;;;8.69;100.00;100733.97;5124368;27;20484;-50
2022/07/01 01:49:38;;;;;;;0.17;0.10;;;;;;;8.75;100.00;100738.53;5119559;27;20114;-50
2022/07/01 01:52:04;;;;;;;1.33;0.10;;;;;;;8.80;100.00;100733.56;5125094;27;20019;-50
2022/07/01 01:54:29;;;;;;;0.52;0.30;;;;;;;8.86;100.00;100746.09;5124207;28;20036;-53
2022/07/01 01:56:55;;;;;;;0.57;0.32;;;;;;;8.93;100.00;100740.94;5118039;27;20098;-52
2022/07/01 01:59:20;;;;;;;1.30;0.10;;;;;;;8.97;100.00;100744.88;5125825;27;20016;-50
2022/07/01 02:01:45;;;;;;;1.38;0.40;;;;;;;9.04;100.00;100745.03;5124886;27;20031;-50
2022/07/01 02:04:11;;;;;;;1.00;0.10;;;;;;;9.11;100.00;100743.31;5123512;27;20119;-50
2022/07/01 02:06:37;;;;;;;0.47;0.17;;;;;;;9.14;100.00;100745.63;5121456;27;20031;-52
2022/07/01 02:09:03;;;;;;;2.90;0.03;;;;;;;9.20;100.00;100741.47;5124904;27;20026;-50
2022/07/01 02:11:28;;;;;;;1.90;0.10;;;;;;;9.25;100.00;100745.22;5123935;27;20104;-55
2022/07/01 02:13:54;;;;;;;0.17;0.15;;;;;;;9.29;100.00;100746.53;5126539;27;20034;-53
2022/07/01 02:16:19;;;;;;;0.40;0.38;;;;;;;9.30;100.00;100750.81;5125481;27;20380;-52
2022/07/01 02:18:45;;;;;;;1.98;0.20;;;;;;;9.30;100.00;100747.34;5124374;27;20024;-52
2022/07/01 02:21:10;;;;;;;0.00;0.00;;;;;;;9.31;100.00;100744.50;5121334;27;20097;-53
2022/07/01 02:23:35;;;;;;;3.63;0.20;;;;;;;9.33;100.00;100742.50;5117828;27;20046;-52
2022/07/01 02:26:01;;;;;;;0.32;0.10;;;;;;;9.37;100.00;100748.25;5119549;28;20030;-51
2022/07/01 02:28:26;;;;;;;1.85;0.30;;;;;;;9.39;100.00;100752.38;5123038;27;20455;-54
2022/07/01 02:30:51;;;;;;;1.02;0.20;;;;;;;9.46;100.00;100754.34;5124636;27;20461;-52
2022/07/01 02:33:17;;;;;;;0.10;0.10;;;;;;;9.52;100.00;100751.78;5120905;27;20257;-54
2022/07/01 02:35:42;;;;;;;0.93;0.35;;;;;;;9.60;100.00;100758.84;5122016;27;20147;-52
2022/07/01 02:38:08;;;;;;;1.83;0.25;;;;;;;9.71;100.00;100754.97;5117422;27;20047;-53
2022/07/01 02:40:37;;;;;;;5.60;0.30;;;;;;;9.77;100.00;100764.84;5119845;27;20019;-53
2022/07/01 02:43:04;;;;;;;0.20;0.03;;;;;;;9.78;100.00;100771.78;5122180;27;20023;-52
2022/07/01 02:45:29;;;;;;;0.22;0.13;;;;;;;9.76;100.00;100766.66;5121014;27;20441;-52
2022/07/01 02:47:54;;;;;;;0.13;0.00;;;;;;;9.79;100.00;100765.50;5120580;27;20034;-50
2022/07/01 02:50:20;;;;;;;1.77;0.20;;;;;;;9.88;100.00;100771.53;5123057;27;20023;-53
2022/07/01 02:52:46;;;;;;;1.52;0.38;;;;;;;9.94;100.00;100765.50;5112314;27;20135;-55
2022/07/01 02:55:13;;;;;;;2.20;0.10;;;;;;;9.96;100.00;100759.03;5121825;27;20523;-55
2022/07/01 02:57:40;;;;;;;0.40;0.10;;;;;;;10.00;100.00;100764.81;5125076;27;20035;-49
2022/07/01 03:00:07;;;;;;;0.60;0.15;;;;;;;10.01;100.00;100766.44;5113209;27;20024;-55
2022/07/01 03:02:33;;;;;;;6.75;1.20;;;;;;;10.01;100.00;100758.50;5124172;28;20043;-51
2022/07/01 03:04:59;;;;;;;1.77;0.30;;;;;;;10.01;100.00;100767.25;5117155;27;20034;-50
2022/07/01 03:07:24;;;;;;;6.55;0.82;;;;;;;10.07;100.00;100772.84;5118538;27;20050;-52
2022/07/01 03:09:50;;;;;;;0.95;0.22;;;;;;;10.11;100.00;100776.78;5116420;27;20034;-50
2022/07/01 03:12:27;;;;;;;0.73;0.20;;;;;;;10.14;100.00;100779.06;5117258;27;20399;-52
2022/07/01 03:15:07;;;;;;;1.75;1.00;;;;;;;10.20;100.00;100784.47;5124719;27;20467;-50
2022/07/01 03:17:35;;;;;;;2.60;0.35;;;;;;;10.20;100.00;100781.81;5119508;27;20099;-54
2022/07/01 03:20:01;;;;;;;0.73;0.10;;;;;;;10.20;100.00;100792.44;5120696;27;20055;-50
2022/07/01 03:22:29;;;;;;;1.20;0.30;;;;;;;10.23;100.00;100791.25;5115294;27;20034;-51
2022/07/01 03:24:55;;;;;;;1.38;0.52;;;;;;;10.22;100.00;100787.78;5124236;27;20103;-52
2022/07/01 03:27:22;;;;;;;1.27;0.05;;;;;;;10.23;100.00;100796.53;5123229;27;20110;-52
2022/07/01 03:29:47;;;;;;;0.45;0.28;;;;;;;10.27;100.00;100792.50;5120323;27;20368;-50
2022/07/01 03:32:13;;;;;;;0.70;0.38;;;;;;;10.30;100.00;100791.34;5116559;27;20145;-54
2022/07/01 03:34:40;;;;;;;3.60;0.52;;;;;;;10.31;100.00;100799.13;5125616;27;20036;-50
2022/07/01 03:37:06;;;;;;;1.58;0.30;;;;;;;10.34;100.00;100800.59;5125934;27;20027;-50
2022/07/01 03:39:33;;;;;;;2.30;0.25;;;;;;;10.37;100.00;100801.06;5115396;27;20499;-51
2022/07/01 03:41:58;;;;;;;2.17;0.40;;;;;;;10.37;100.00;100797.59;5120369;27;20031;-50
2022/07/01 03:44:24;;;;;;;1.60;0.75;;;;;;;10.39;100.00;100814.13;5121499;27;20023;-53
2022/07/01 03:46:49;;;;;;;3.20;0.95;;;;;;;10.39;100.00;100806.19;5121305;27;20069;-50
2022/07/01 03:49:14;;;;;;;6.35;1.02;;;;;;;10.39;100.00;100814.13;5118845;27;20027;-54
2022/07/01 03:51:40;;;;;;;3.13;0.20;;;;;;;10.43;100.00;100818.09;5115032;27;20031;-49
2022/07/01 03:56:49;;;;;;;1.38;0.60;;;;;;;10.47;100.00;100824.66;5116368;27;20038;-52
2022/07/01 03:59:15;;;;;;;0.30;0.30;;;;;;;10.45;100.00;100822.19;5125017;27;20448;-50
2022/07/01 04:01:40;;;;;;;0.32;0.30;;;;;;;10.45;100.00;100826.66;5116929;27;20043;-52
2022/07/01 04:04:05;;;;;;;1.20;0.28;;;;;;;10.47;100.00;100829.94;5119676;27;20027;-52
2022/07/01 04:06:31;;;;;;;1.08;0.50;;;;;;;10.46;100.00;100828.31;5117766;27;20043;-50
2022/07/01 04:08:56;;;;;;;2.08;0.35;;;;;;;10.45;100.00;100829.31;5115450;27;20472;-48
2022/07/01 04:11:22;;;;;;;2.85;0.13;;;;;;;10.45;100.00;100837.25;5119389;27;20035;-52
2022/07/01 04:13:50;;;;;;;2.08;0.20;;;;;;;10.42;100.00;100841.09;5117058;27;20056;-53
2022/07/01 04:16:20;;;;;;;1.48;0.50;;;;;;;10.43;100.00;100840.09;5119117;27;20575;-50
2022/07/01 04:18:49;;;;;;;2.50;0.30;;;;;;;10.46;100.00;100839.75;5118483;27;20023;-51
2022/07/01 04:23:58;;;;;;;0.22;0.22;;;;;;;10.54;100.00;100840.66;5119329;27;20042;-52
2022/07/01 04:26:24;;;;;;;2.53;0.57;;;;;;;10.57;100.00;100843.75;5120861;27;20027;-54
2022/07/01 04:28:54;;;;;;;1.42;0.82;;;;;;;10.57;100.00;100849.06;5119928;27;20031;-53
2022/07/01 04:31:20;;;;;;;0.73;0.15;;;;;;;10.59;100.00;100849.72;5119596;27;20058;-51
2022/07/01 04:33:49;;;;;;;2.65;0.20;;;;;;;10.59;100.00;100844.41;5116941;27;20112;-50
2022/07/01 04:36:15;;;;;;;1.65;0.30;;;;;;;10.59;100.00;100839.09;5116618;27;20042;-53
2022/07/01 04:38:40;;;;;;;2.67;0.38;;;;;;;10.57;100.00;100843.75;5120803;27;20023;-52
2022/07/01 04:43:49;;;;;;;3.05;1.05;;;;;;;10.55;100.00;100845.78;5126791;27;20102;-52
2022/07/01 04:46:15;;;;;;;1.77;0.73;;;;;;;10.52;100.00;100855.94;5127400;27;20031;-55
2022/07/01 04:48:40;;;;;;;2.88;1.05;;;;;;;10.47;100.00;100862.59;5121538;27;20464;-49
2022/07/01 04:51:06;;;;;;;0.77;0.50;;;;;;;10.43;100.00;100860.50;5124899;27;20754;-51
2022/07/01 04:53:31;;;;;;;3.22;0.25;;;;;;;10.33;100.00;100859.94;5124351;27;20058;-55
2022/07/01 04:55:57;;;;;;;0.52;0.20;;;;;;;10.27;100.00;100861.41;5116023;27;20471;-54
2022/07/01 04:58:22;;;;;;;1.23;0.40;;;;;;;10.19;100.00;100864.16;5108824;28;20068;-56
2022/07/01 05:00:48;;;;;;;2.03;0.32;;;;;;;10.11;100.00;100862.38;5126495;27;20076;-52
2022/07/01 05:03:14;;;;;;;2.58;0.20;;;;;;;10.08;100.00;100853.97;5120836;27;20108;-52
2022/07/01 05:05:40;;;;;;;0.73;0.73;;;;;;;10.02;100.00;100863.47;5126823;27;20093;-50
2022/07/01 05:08:05;;;;;;;0.90;0.20;;;;;;;10.03;100.00;100865.94;5126698;27;20521;-52
2022/07/01 05:10:30;;;;;;;4.30;0.50;;;;;;;10.02;100.00;100868.78;5123946;27;20472;-56
2022/07/01 05:12:55;;;;;;;6.40;0.30;;;;;;;9.99;100.00;100864.66;5121847;27;20341;-53
2022/07/01 05:15:21;;;;;;;0.40;0.40;;;;;;;10.04;100.00;100869.41;5124526;27;20374;-53
2022/07/01 05:23:14;;;;;;;3.20;0.15;;;;;;;10.17;100.00;100858.19;5118304;27;20043;-51
2022/07/01 05:25:39;;;;;;;0.75;0.45;;;;;;;10.15;100.00;100870.81;5120615;27;20059;-56
2022/07/01 05:28:05;;;;;;;0.45;0.25;;;;;;;10.14;100.00;100866.50;5125113;27;20042;-54
2022/07/01 05:30:30;;;;;;;2.65;0.70;;;;;;;10.22;100.00;100864.63;5125974;27;20034;-52
2022/07/01 05:32:55;;;;;;;0.80;0.57;;;;;;;10.30;100.00;100860.25;5119188;27;20119;-52
2022/07/01 05:35:21;;;;;;;0.77;0.55;;;;;;;10.35;100.00;100868.50;5122391;27;20031;-57
2022/07/01 05:37:46;;;;;;;1.05;0.70;;;;;;;10.50;100.00;100877.31;5124087;28;20156;-50
2022/07/01 05:40:11;;;;;;;0.32;0.30;;;;;;;10.69;100.00;100870.66;5120460;27;20117;-53
2022/07/01 05:42:37;;;;;;;2.08;0.35;;;;;;;10.89;100.00;100886.84;5118594;27;20156;-52
2022/07/01 05:45:03;;;;;;;9.93;0.75;;;;;;;11.03;100.00;100883.38;5125033;27;20497;-57
2022/07/01 05:47:28;;;;;;;2.15;1.25;;;;;;;11.12;100.00;100886.75;5128836;27;20556;-51
2022/07/01 05:49:53;;;;;;;2.63;0.38;;;;;;;11.22;100.00;100883.81;5123954;27;20031;-52
2022/07/01 05:52:19;;;;;;;1.42;0.60;;;;;;;11.27;100.00;100884.91;5117755;27;20502;-47
2022/07/01 05:54:44;;;;;;;2.50;0.50;;;;;;;11.30;100.00;100887.16;5120903;27;20031;-53
2022/07/01 05:57:10;;;;;;;2.25;1.15;;;;;;;11.38;100.00;100872.16;5124990;27;20028;-53
2022/07/01 05:59:36;;;;;;;1.17;0.85;;;;;;;11.42;100.00;100874.25;5124327;27;20063;-50
2022/07/01 06:02:01;;;;;;;1.75;1.05;;;;;;;11.48;100.00;100868.19;5121673;27;20488;-55
2022/07/01 06:04:27;;;;;;;4.65;1.58;;;;;;;11.53;100.00;100859.66;5126424;27;20070;-50
2022/07/01 06:06:52;;;;;;;4.07;1.77;;;;;;;11.54;100.00;100869.28;5120994;27;20027;-52
2022/07/01 06:09:17;;;;;;;2.97;1.48;;;;;;;11.58;100.00;100857.25;5125010;27;20034;-48
2022/07/01 06:11:43;;;;;;;2.28;1.10;;;;;;;11.65;100.00;100854.69;5123140;27;20046;-51
2022/07/01 06:14:08;;;;;;;3.88;1.33;;;;;;;11.75;100.00;100856.03;5120520;27;20035;-51
2022/07/01 06:16:33;;;;;;;1.85;0.93;;;;;;;11.87;100.00;100844.91;5109039;27;20034;-53
2022/07/01 06:18:59;;;;;;;0.90;0.57;;;;;;;11.91;100.00;100844.34;5114110;27;20032;-50
2022/07/01 06:21:24;;;;;;;0.90;0.73;;;;;;;11.96;100.00;100841.94;5120681;27;20490;-53
2022/07/01 06:23:50;;;;;;;3.45;1.48;;;;;;;12.00;100.00;100835.22;5116057;27;20035;-47
2022/07/01 06:26:15;;;;;;;3.85;1.58;;;;;;;12.06;100.00;100848.78;5112643;27;20068;-48
2022/07/01 06:28:41;;;;;;;3.95;0.52;;;;;;;12.10;100.00;100848.16;5114787;27;20087;-52
2022/07/01 06:31:07;;;;;;;0.85;0.30;;;;;;;12.13;100.00;100846.97;5122639;27;20105;-52
2022/07/01 06:33:33;;;;;;;0.95;0.63;;;;;;;12.20;100.00;100850.50;5120021;27;20507;-52
2022/07/01 06:35:58;;;;;;;0.52;0.50;;;;;;;12.25;100.00;100853.41;5121594;27;20039;-51
2022/07/01 06:38:24;;;;;;;4.03;0.73;;;;;;;12.28;100.00;100850.34;5121580;27;20118;-52
2022/07/01 06:43:34;;;;;;;2.45;0.98;;;;;;;12.31;100.00;100843.84;5121314;27;20164;-51
2022/07/01 06:46:00;;;;;;;1.13;0.80;;;;;;;12.34;100.00;100843.44;5118263;27;20042;-54
2022/07/01 06:48:25;;;;;;;2.20;1.70;;;;;;;12.41;100.00;100831.03;5120186;27;20023;-54
2022/07/01 06:50:50;;;;;;;5.55;0.68;;;;;;;12.48;100.00;100834.56;5123999;27;20493;-53
2022/07/01 06:53:16;;;;;;;1.80;0.70;;;;;;;12.54;100.00;100844.41;5121626;27;20544;-52
2022/07/01 06:55:41;;;;;;;1.80;1.17;;;;;;;12.55;100.00;100830.09;5121445;27;20035;-50
2022/07/01 06:58:07;;;;;;;1.50;0.30;;;;;;;12.79;100.00;100842.09;5120964;27;20110;-54
2022/07/01 07:00:32;;;;;;;1.65;0.55;;;;;;;12.79;100.00;100830.63;5098151;28;20024;-54
2022/07/01 07:02:58;;;;;;;1.65;0.47;;;;;;;12.80;100.00;100832.28;5116456;27;20040;-53
2022/07/01 07:05:23;;;;;;;6.40;0.65;;;;;;;13.03;100.00;100834.63;5115699;27;20031;-55
2022/07/01 07:07:48;;;;;;;1.35;0.57;;;;;;;13.20;100.00;100824.47;5119630;27;20372;-49
2022/07/01 07:10:14;;;;;;;0.88;0.30;;;;;;;13.21;100.00;100813.59;5121958;27;20031;-48
2022/07/01 07:12:39;;;;;;;0.77;0.60;;;;;;;13.39;100.00;100812.25;5115592;27;20168;-49
2022/07/01 07:15:05;;;;;;;2.70;1.13;;;;;;;13.49;100.00;100823.34;5116150;27;20035;-49
2022/07/01 07:17:31;;;;;;;0.65;0.47;;;;;;;13.51;100.00;100822.13;5120256;27;20483;-46
2022/07/01 07:19:56;;;;;;;0.52;0.50;;;;;;;13.45;100.00;100822.09;5119121;27;20501;-54
2022/07/01 07:22:22;;;;;;;2.90;1.15;;;;;;;13.63;100.00;100810.84;5126697;27;20118;-43
2022/07/01 07:24:47;;;;;;;0.35;0.25;;;;;;;13.62;100.00;100822.56;5116458;27;20027;-46
2022/07/01 07:27:13;;;;;;;2.15;0.63;;;;;;;13.74;100.00;100829.75;5125548;27;20468;-45
2022/07/01 07:29:39;;;;;;;1.27;0.52;;;;;;;13.67;100.00;100820.09;5113077;27;21048;-47
2022/07/01 07:32:04;;;;;;;1.58;0.15;;;;;;;13.60;100.00;100804.09;5118056;27;20379;-53
2022/07/01 07:34:30;;;;;;;3.05;0.55;;;;;;;13.42;100.00;100820.66;5121017;27;20020;-50
2022/07/01 07:36:55;;;;;;;8.40;0.60;;;;;;;13.48;100.00;100808.41;5123810;27;20075;-44
2022/07/01 07:39:20;;;;;;;1.52;0.43;;;;;;;13.38;100.00;100807.97;5116465;27;20123;-48
2022/07/01 07:41:46;;;;;;;0.90;0.25;;;;;;;13.52;100.00;100814.94;5125901;27;20043;-46
2022/07/01 07:44:11;;;;;;;0.45;0.15;;;;;;;13.90;100.00;100814.38;5120302;27;20503;-49
2022/07/01 07:46:37;;;;;;;3.20;0.77;;;;;;;14.30;100.00;100811.69;5119523;27;20030;-44
2022/07/01 07:49:02;;;;;;;0.65;0.30;;;;;;;14.46;100.00;100805.94;5114094;27;20464;-50
2022/07/01 07:51:27;;;;;;;1.27;0.30;;;;;;;14.47;100.00;100810.22;5115089;27;20021;-48
2022/07/01 07:53:53;;;;;;;1.33;0.15;;;;;;;14.40;100.00;100806.75;5117565;27;20023;-53
2022/07/01 07:56:18;;;;;;;1.85;0.00;;;;;;;14.26;100.00;100802.47;5120049;27;20118;-43
2022/07/01 07:58:44;;;;;;;0.65;0.10;;;;;;;14.55;100.00;100801.22;5124987;27;20023;-45
2022/07/01 08:01:09;;;;;;;1.52;0.25;;;;;;;14.71;100.00;100794.59;5121154;27;20083;-49
2022/07/01 08:03:35;;;;;;;3.28;0.20;;;;;;;14.79;100.00;100802.34;5120429;27;20375;-49
2022/07/01 08:06:01;;;;;;;1.02;0.47;;;;;;;14.72;100.00;100799.72;5126499;27;20027;-45
2022/07/01 08:08:27;;;;;;;0.90;0.17;;;;;;;14.76;100.00;100794.78;5127226;27;20038;-48
2022/07/01 08:10:53;;;;;;;2.13;0.47;;;;;;;14.74;100.00;100791.50;5120915;27;20023;-50
2022/07/01 08:13:18;;;;;;;1.77;0.30;;;;;;;14.82;100.00;100791.28;5115380;27;20038;-45
2022/07/01 08:15:44;;;;;;;1.35;0.00;;;;;;;15.08;100.00;100785.00;5110106;28;20024;-47
2022/07/01 08:18:09;;;;;;;7.43;1.33;;;;;;;15.28;100.00;100779.53;5117591;27;20067;-47
2022/07/01 08:20:35;;;;;;;2.22;0.10;;;;;;;15.29;100.00;100789.19;5121532;27;20027;-46
2022/07/01 08:23:00;;;;;;;0.63;0.00;;;;;;;15.44;100.00;100787.06;5126872;27;20072;-52
2022/07/01 08:25:25;;;;;;;2.00;0.13;;;;;;;15.58;100.00;100797.66;5118762;27;20495;-48
2022/07/01 08:27:51;;;;;;;1.65;0.30;;;;;;;15.67;100.00;100785.69;5127432;27;20061;-54
2022/07/01 08:30:16;;;;;;;1.40;0.20;;;;;;;15.57;100.00;100788.00;5129483;27;20058;-56
2022/07/01 08:32:41;;;;;;;3.25;0.10;;;;;;;15.54;100.00;100783.06;5116768;27;20468;-45
2022/07/01 08:35:07;;;;;;;0.63;0.13;;;;;;;15.85;100.00;100787.59;5129861;27;20019;-46
2022/07/01 08:37:33;;;;;;;0.47;0.05;;;;;;;16.28;100.00;100787.63;5131299;27;20059;-52
2022/07/01 08:39:59;;;;;;;3.13;0.40;;;;;;;16.41;100.00;100791.22;5118811;27;20023;-57
2022/07/01 08:42:24;;;;;;;1.17;0.00;;;;;;;16.21;100.00;100791.41;5127284;27;20373;-50
2022/07/01 08:44:49;;;;;;;0.25;0.20;;;;;;;16.24;100.00;100791.78;5122061;27;20381;-52
2022/07/01 08:47:15;;;;;;;1.58;0.47;;;;;;;16.49;100.00;100790.91;5126520;27;20445;-47
2022/07/01 08:49:41;;;;;;;2.17;0.40;;;;;;;16.69;100.00;100788.84;5115292;27;20051;-53
2022/07/01 08:52:09;;;;;;;0.28;0.20;;;;;;;16.73;100.00;100803.41;5120895;27;20027;-53
2022/07/01 08:54:36;;;;;;;0.95;0.00;;;;;;;16.46;100.00;100804.75;5126568;27;20015;-57
2022/07/01 09:10:22;;;;;;;1.92;0.10;;;;;;;16.93;100.00;100786.31;5162874;27;20418;-90
2022/07/01 09:12:50;;;;;;;2.17;0.57;;;;;;;17.29;100.00;100788.09;5153387;27;20039;-90
2022/07/01 09:15:27;;;;;;;1.92;0.15;;;;;;;17.70;100.00;100780.28;5126352;27;20035;-90
2022/07/01 09:17:56;;;;;;;1.08;0.45;;;;;;;17.87;100.00;100790.13;5123048;27;20041;-90
2022/07/01 09:20:23;;;;;;;1.02;0.63;;;;;;;18.12;100.00;100777.53;5124498;27;20027;-90
2022/07/01 09:23:02;;;;;;;1.00;0.30;;;;;;;18.13;100.00;100787.22;5148738;27;20047;-89
2022/07/01 09:25:51;;;;;;;0.98;0.10;;;;;;;17.99;100.00;100786.63;5129743;27;20035;-89
2022/07/01 09:28:38;;;;;;;3.80;0.30;;;;;;;17.51;100.00;100788.41;5121922;27;20031;-90
2022/07/01 09:31:14;;;;;;;0.65;0.15;;;;;;;17.29;100.00;100788.09;5134127;27;20366;-92
2022/07/01 09:33:43;;;;;;;0.28;0.17;;;;;;;17.29;100.00;100801.50;5122877;27;20037;-91
2022/07/01 09:36:15;;;;;;;1.10;0.20;;;;;;;17.54;100.00;100798.66;5122087;27;20015;-91
2022/07/01 09:38:47;;;;;;;0.47;0.22;;;;;;;17.87;100.00;100790.13;5131735;27;20134;-90
2022/07/01 09:41:13;;;;;;;0.65;0.10;;;;;;;17.80;100.00;100796.66;5142468;27;20113;-89
2022/07/01 09:43:39;;;;;;;1.88;0.03;;;;;;;17.37;100.00;100801.19;5121791;27;20115;-91
2022/07/01 09:46:08;;;;;;;0.25;0.22;;;;;;;17.40;100.00;100797.25;5121253;27;20046;-90
2022/07/01 09:48:45;;;;;;;1.35;0.17;;;;;;;17.47;100.00;100802.47;5132831;27;20030;-91
2022/07/01 09:51:18;;;;;;;4.32;0.30;;;;;;;17.73;100.00;100809.31;5117675;27;20461;-90
2022/07/01 09:53:44;;;;;;;2.40;0.30;;;;;;;17.81;100.00;100811.69;5118508;27;20031;-91
2022/07/01 09:56:10;;;;;;;0.45;0.30;;;;;;;17.54;100.00;100805.88;5154219;27;20121;-88
2022/07/01 09:58:38;;;;;;;0.85;0.20;;;;;;;17.10;100.00;100810.63;5139824;27;20395;-89
2022/07/01 10:01:04;;;;;;;0.40;0.30;;;;;;;16.80;100.00;100816.75;5113292;27;20076;-88
2022/07/01 10:03:32;;;;;;;1.88;0.22;;;;;;;16.82;100.00;100819.22;5130485;27;20027;-90
2022/07/01 10:06:10;;;;;;;3.42;1.55;;;;;;;16.96;100.00;100815.31;5136167;27;20363;-89
2022/07/01 10:08:58;;;;;;;3.50;0.25;;;;;;;17.28;100.00;100813.25;5126532;27;20018;-90
2022/07/01 10:11:42;;;;;;;0.57;0.20;;;;;;;17.56;100.00;100812.66;5120219;27;20635;-88
2022/07/01 10:14:18;;;;;;;1.08;0.63;;;;;;;18.00;100.00;100815.91;5124721;27;20079;-90
2022/07/01 10:16:50;;;;;;;1.75;0.43;;;;;;;18.44;100.00;100820.94;5123983;27;20597;-89
2022/07/01 10:19:25;;;;;;;3.53;0.50;;;;;;;18.93;100.00;100814.22;5139057;27;20382;-90
2022/07/01 10:22:25;;;;;;;0.68;0.28;;;;;;;18.99;100.00;100815.13;5128775;27;20100;-88
2022/07/01 10:24:51;;;;;;;3.28;0.38;;;;;;;18.04;100.00;100813.56;5125638;27;20031;-90
2022/07/01 10:27:24;;;;;;;1.50;0.57;;;;;;;17.52;100.00;100810.66;5107714;27;20432;-93
2022/07/01 10:30:13;;;;;;;1.02;0.20;;;;;;;17.11;100.00;100818.41;5112953;28;20091;-89
2022/07/01 10:32:47;;;;;;;6.75;0.20;;;;;;;17.09;100.00;100815.16;5088734;27;20031;-89
2022/07/01 10:35:13;;;;;;;2.67;1.20;;;;;;;17.44;100.00;100809.94;5112641;28;20663;-90
2022/07/01 10:37:58;;;;;;;0.75;0.30;;;;;;;17.86;100.00;100815.34;5111787;27;20445;-89
2022/07/01 10:40:45;;;;;;;2.25;0.25;;;;;;;18.54;100.00;100813.13;5102714;27;20047;-90
2022/07/01 10:43:11;;;;;;;0.30;0.20;;;;;;;18.65;100.00;100811.47;5118147;27;20035;-90
2022/07/01 10:45:46;;;;;;;1.00;0.55;;;;;;;18.41;100.00;100813.38;5100304;27;20131;-90
2022/07/01 10:48:22;;;;;;;0.88;0.10;;;;;;;18.28;100.00;100811.75;5096528;28;20046;-89
2022/07/01 10:50:49;;;;;;;1.10;0.20;;;;;;;18.43;100.00;100820.13;5124677;27;20027;-90
2022/07/01 10:53:15;;;;;;;2.22;0.32;;;;;;;18.49;100.00;100821.88;5122562;27;20035;-89
2022/07/01 10:55:55;;;;;;;0.30;0.00;;;;;;;18.43;100.00;100820.13;5114202;27;20356;-90
2022/07/01 10:58:38;;;;;;;0.75;0.00;;;;;;;18.70;100.00;100825.00;5098071;27;20147;-91
2022/07/01 11:01:09;;;;;;;1.02;0.40;;;;;;;19.05;100.00;100826.78;5116877;27;20132;-89
2022/07/01 11:03:36;;;;;;;3.33;0.57;;;;;;;19.24;100.00;100825.56;5099419;27;20042;-90
2022/07/01 11:06:05;;;;;;;1.23;0.45;;;;;;;19.23;100.00;100823.91;5100623;27;20035;-90
2022/07/01 11:08:33;;;;;;;1.38;0.20;;;;;;;19.14;100.00;100844.19;5096183;27;20082;-89
2022/07/01 11:11:04;;;;;;;1.30;0.20;;;;;;;18.61;100.00;100846.03;5095081;28;20435;-89
2022/07/01 11:13:47;;;;;;;;;;;;;;;;;;;;;
2022/07/01 11:16:15;;;;;;;0.08;0.00;;;;;;;18.40;100.00;100855.47;5114052;27;19941;-89
2022/07/01 11:18:47;;;;;;;4.15;0.00;;;;;;;18.34;100.00;100861.78;5109183;28;20024;-89
2022/07/01 11:21:15;;;;;;;5.93;0.57;;;;;;;18.12;100.00;100860.72;5118026;27;20035;-90
2022/07/01 11:24:12;;;;;;;0.85;0.10;;;;;;;17.99;100.00;100856.38;5109198;28;20050;-89
2022/07/01 11:26:42;;;;;;;0.32;0.20;;;;;;;17.98;100.00;100855.56;5096801;28;20066;-91
2022/07/01 11:29:15;;;;;;;1.30;0.57;;;;;;;17.80;100.00;100861.00;5122513;27;20080;-91
2022/07/01 11:32:25;;;;;;;2.15;0.35;;;;;;;17.39;100.00;100862.59;5132368;27;20015;-92
2022/07/01 11:34:51;;;;;;;1.02;0.08;;;;;;;17.32;100.00;100859.16;5113016;28;20447;-90
2022/07/01 11:40:06;;;;;;;1.33;0.00;;;;;;;18.41;100.00;100861.69;5122634;27;20042;-91
2022/07/01 11:42:41;;;;;;;1.13;0.22;;;;;;;19.16;100.00;100855.53;5116966;27;20024;-91
2022/07/01 11:45:07;;;;;;;1.55;0.85;;;;;;;19.81;100.00;100835.47;5127680;27;20046;-88
2022/07/01 11:47:51;;;;;;;0.40;0.30;;;;;;;20.13;100.00;100837.59;5131847;27;20106;-91
2022/07/01 11:50:21;;;;;;;3.85;0.30;;;;;;;20.23;100.00;100838.56;5100657;28;20550;-91
2022/07/01 11:52:57;;;;;;;;;;;;;;;;;;;;;
2022/07/01 11:55:29;;;;;;;0.73;0.30;;;;;;;20.81;100.00;100838.31;5124296;27;20598;-90